Time;durP1;ratioP1;P1;durP2;ratioP2;P2;SDS_P1;SDS_P2;PMS_P1;PMS_P2;Temp;Humidity;BMP_temperature;BMP_pressure;BME280_temperature;BME280_humidity;BME280_pressure;Samples;Min_cycle;Max_cycle;Signal;HPM_P1;HPM_P2
2021/09/25 00:01:43;;;;;;;8.07;6.00;;;15.00;66.30;;;;;;5003921;28;20037;-44
2021/09/25 00:04:27;;;;;;;8.02;5.30;;;15.00;66.30;;;;;;5003853;28;20097;-44
2021/09/25 00:07:12;;;;;;;9.05;5.07;;;15.00;66.40;;;;;;5003904;28;20053;-42
2021/09/25 00:09:56;;;;;;;8.63;4.85;;;15.00;66.30;;;;;;5006413;28;20029;-42
2021/09/25 00:12:40;;;;;;;6.93;4.65;;;15.00;66.30;;;;;;5006264;28;20377;-44
2021/09/25 00:15:24;;;;;;;7.93;4.72;;;15.00;66.30;;;;;;5007824;28;20134;-42
2021/09/25 00:18:08;;;;;;;7.35;4.90;;;15.00;66.30;;;;;;5007396;28;20041;-42
2021/09/25 00:20:53;;;;;;;5.93;4.60;;;15.00;66.20;;;;;;5006194;28;20041;-42
2021/09/25 00:23:37;;;;;;;7.00;4.50;;;14.90;66.30;;;;;;5007237;28;20073;-41
2021/09/25 00:26:22;;;;;;;6.85;4.93;;;14.90;66.50;;;;;;5007560;28;20037;-43
2021/09/25 00:29:06;;;;;;;7.10;4.90;;;14.80;66.40;;;;;;5005878;28;20098;-42
2021/09/25 00:31:50;;;;;;;7.80;4.85;;;14.80;66.60;;;;;;5007080;28;20102;-43
2021/09/25 00:34:34;;;;;;;8.65;5.00;;;14.80;66.40;;;;;;5007107;28;20033;-43
2021/09/25 00:37:18;;;;;;;6.03;4.68;;;14.80;66.40;;;;;;5005918;28;20025;-42
2021/09/25 00:40:03;;;;;;;6.90;4.65;;;14.80;66.40;;;;;;5006863;28;20098;-43
2021/09/25 00:42:48;;;;;;;7.20;5.18;;;14.80;66.40;;;;;;5006554;28;20026;-42
2021/09/25 00:45:32;;;;;;;6.00;4.25;;;14.80;66.40;;;;;;5006585;28;20357;-42
2021/09/25 00:48:16;;;;;;;5.60;4.15;;;14.80;66.50;;;;;;5007043;28;20246;-44
2021/09/25 00:51:00;;;;;;;8.43;4.90;;;14.80;66.60;;;;;;5006651;28;20084;-43
2021/09/25 00:53:45;;;;;;;8.88;4.80;;;14.80;66.60;;;;;;5006840;28;20100;-43
2021/09/25 00:56:29;;;;;;;6.07;4.38;;;14.80;66.70;;;;;;5006318;28;20037;-43
2021/09/25 00:59:14;;;;;;;8.40;4.85;;;14.80;66.70;;;;;;5005501;28;20097;-42
2021/09/25 01:01:58;;;;;;;7.97;4.72;;;14.70;66.80;;;;;;5006330;28;20037;-43
2021/09/25 01:04:44;;;;;;;10.88;4.70;;;14.70;66.70;;;;;;5005502;28;20092;-43
2021/09/25 01:07:28;;;;;;;7.40;4.32;;;14.70;66.80;;;;;;5006182;28;20080;-42
2021/09/25 01:10:13;;;;;;;7.05;4.45;;;14.70;66.80;;;;;;5006210;28;20032;-42
2021/09/25 01:12:57;;;;;;;7.00;4.47;;;14.70;66.70;;;;;;5006542;28;20361;-42
2021/09/25 01:15:41;;;;;;;6.10;4.40;;;14.60;66.70;;;;;;5005083;28;20057;-42
2021/09/25 01:18:26;;;;;;;7.75;4.53;;;14.60;66.70;;;;;;5006406;28;20061;-42
2021/09/25 01:21:10;;;;;;;7.20;4.18;;;14.60;66.60;;;;;;5004904;28;20106;-42
2021/09/25 01:23:54;;;;;;;5.97;4.30;;;14.60;66.50;;;;;;5005831;28;20106;-44
2021/09/25 01:26:38;;;;;;;7.65;4.22;;;14.60;66.60;;;;;;5006377;28;20033;-44
2021/09/25 01:29:24;;;;;;;6.03;4.40;;;14.60;66.50;;;;;;5006197;28;20064;-42
2021/09/25 01:32:08;;;;;;;7.95;4.45;;;14.50;66.50;;;;;;5005764;28;20053;-43
2021/09/25 01:34:52;;;;;;;5.72;4.10;;;14.50;66.70;;;;;;5005022;28;20218;-42
2021/09/25 01:37:36;;;;;;;5.13;4.00;;;14.50;66.70;;;;;;5005407;28;20033;-43
2021/09/25 01:40:21;;;;;;;5.75;4.10;;;14.40;66.50;;;;;;5005651;28;20065;-42
2021/09/25 01:43:05;;;;;;;5.95;4.43;;;14.40;66.40;;;;;;5005513;28;20037;-43
2021/09/25 01:45:49;;;;;;;7.63;4.30;;;14.40;66.40;;;;;;5005568;28;20090;-42
2021/09/25 01:48:34;;;;;;;7.38;4.57;;;14.30;66.70;;;;;;5005329;28;20026;-42
2021/09/25 01:51:18;;;;;;;6.45;4.05;;;14.30;66.80;;;;;;5005708;28;20061;-43
2021/09/25 01:54:04;;;;;;;6.57;4.30;;;14.30;66.90;;;;;;5004488;28;20450;-42
2021/09/25 01:56:49;;;;;;;5.38;4.18;;;14.40;66.50;;;;;;5004398;28;20076;-42
2021/09/25 01:59:33;;;;;;;4.70;3.65;;;14.40;66.40;;;;;;5005419;28;20057;-48
2021/09/25 02:02:18;;;;;;;6.30;4.25;;;14.40;66.50;;;;;;5005585;28;20061;-44
2021/09/25 02:05:03;;;;;;;5.00;3.90;;;14.30;66.70;;;;;;5005305;28;20167;-42
2021/09/25 02:07:48;;;;;;;7.70;4.45;;;14.20;67.00;;;;;;5005207;28;20045;-43
2021/09/25 02:10:32;;;;;;;5.00;3.80;;;14.20;67.00;;;;;;5004044;28;20061;-44
2021/09/25 02:13:16;;;;;;;5.28;3.83;;;14.20;67.10;;;;;;5005044;28;20068;-44
2021/09/25 02:16:00;;;;;;;6.50;4.30;;;14.10;67.20;;;;;;5005369;28;20037;-42
2021/09/25 02:18:45;;;;;;;5.55;4.15;;;14.10;67.20;;;;;;5005660;28;20080;-42
2021/09/25 02:21:29;;;;;;;5.35;3.58;;;14.10;67.10;;;;;;5004666;28;20026;-43
2021/09/25 02:24:13;;;;;;;6.70;4.00;;;14.10;67.20;;;;;;5005054;28;20059;-44
2021/09/25 02:26:58;;;;;;;5.65;4.28;;;14.10;66.90;;;;;;5003853;28;20088;-42
2021/09/25 02:29:42;;;;;;;5.40;4.10;;;14.10;67.20;;;;;;5005130;28;20049;-42
2021/09/25 02:32:27;;;;;;;6.35;3.80;;;14.10;67.20;;;;;;5003287;28;20029;-42
2021/09/25 02:35:12;;;;;;;5.45;4.05;;;14.10;67.00;;;;;;5004544;28;20087;-42
2021/09/25 02:37:56;;;;;;;6.40;4.20;;;14.10;66.90;;;;;;5004451;28;20058;-42
2021/09/25 02:40:40;;;;;;;6.88;3.95;;;14.10;66.90;;;;;;5004646;28;20033;-43
2021/09/25 02:43:25;;;;;;;5.47;3.65;;;14.10;67.10;;;;;;5003309;28;20231;-42
2021/09/25 02:46:09;;;;;;;4.97;3.85;;;13.90;67.40;;;;;;5004504;28;20094;-43
2021/09/25 02:48:53;;;;;;;5.07;3.72;;;13.90;67.40;;;;;;5003339;28;20033;-42
2021/09/25 02:51:37;;;;;;;5.80;4.10;;;13.90;67.30;;;;;;5004498;28;20057;-43
2021/09/25 02:54:22;;;;;;;5.65;4.20;;;13.90;67.40;;;;;;5003935;28;20057;-42
2021/09/25 02:57:06;;;;;;;7.63;3.95;;;14.00;67.10;;;;;;5004385;28;20081;-42
2021/09/25 02:59:50;;;;;;;5.80;4.20;;;13.90;67.10;;;;;;5004328;28;20412;-43
2021/09/25 03:02:35;;;;;;;5.80;4.35;;;13.90;67.40;;;;;;5004762;28;20072;-44
2021/09/25 03:05:19;;;;;;;7.22;3.80;;;13.80;67.50;;;;;;5004413;28;20052;-45
2021/09/25 03:08:03;;;;;;;5.20;3.78;;;13.80;67.50;;;;;;5004377;28;20052;-42
2021/09/25 03:10:48;;;;;;;6.07;3.67;;;13.90;67.20;;;;;;5004451;28;20062;-47
2021/09/25 03:13:32;;;;;;;5.22;3.80;;;13.90;67.10;;;;;;5004453;28;20102;-41
2021/09/25 03:16:17;;;;;;;5.43;4.00;;;13.80;67.30;;;;;;5003481;28;20033;-42
2021/09/25 03:19:01;;;;;;;5.22;3.88;;;13.90;67.20;;;;;;5004114;28;20057;-42
2021/09/25 03:21:45;;;;;;;5.85;4.13;;;13.80;67.20;;;;;;5004308;28;20384;-42
2021/09/25 03:24:29;;;;;;;5.00;3.72;;;13.80;67.20;;;;;;5004318;28;20101;-43
2021/09/25 03:27:14;;;;;;;7.63;4.00;;;13.70;67.60;;;;;;5004649;28;20026;-42
2021/09/25 03:29:58;;;;;;;4.60;3.63;;;13.80;67.60;;;;;;5004241;28;20073;-42
2021/09/25 03:32:42;;;;;;;5.00;3.72;;;13.80;67.50;;;;;;5004520;28;20050;-42
2021/09/25 03:35:27;;;;;;;5.57;3.80;;;13.80;67.20;;;;;;5004491;28;20036;-42
2021/09/25 03:38:11;;;;;;;4.95;3.70;;;13.80;67.20;;;;;;5004438;28;20053;-42
2021/09/25 03:40:55;;;;;;;5.35;3.75;;;13.80;67.40;;;;;;5003990;28;20049;-43
2021/09/25 03:43:40;;;;;;;5.35;3.78;;;13.70;67.60;;;;;;5005020;28;20057;-42
2021/09/25 03:46:24;;;;;;;5.93;4.00;;;13.80;67.60;;;;;;5007807;28;20030;-42
2021/09/25 03:49:08;;;;;;;5.53;3.83;;;13.80;67.40;;;;;;5007718;28;20029;-42
2021/09/25 03:51:54;;;;;;;5.65;3.80;;;13.60;67.70;;;;;;5008006;28;20073;-42
2021/09/25 03:54:38;;;;;;;6.05;3.92;;;13.70;67.60;;;;;;5007581;28;20352;-45
2021/09/25 03:57:23;;;;;;;9.57;4.00;;;13.70;67.40;;;;;;5007757;28;20357;-42
2021/09/25 04:00:07;;;;;;;5.30;3.80;;;13.70;67.40;;;;;;5007438;28;20356;-42
2021/09/25 04:02:52;;;;;;;5.28;3.70;;;13.60;67.60;;;;;;5008471;28;20057;-43
2021/09/25 04:05:36;;;;;;;5.45;3.40;;;13.60;67.60;;;;;;5007843;28;20037;-42
2021/09/25 04:08:20;;;;;;;5.32;3.60;;;13.70;67.30;;;;;;5007253;28;20033;-43
2021/09/25 04:11:04;;;;;;;5.18;3.60;;;13.70;67.30;;;;;;5006473;28;20234;-42
2021/09/25 04:13:48;;;;;;;4.75;3.40;;;13.50;67.60;;;;;;5007697;28;20041;-42
2021/09/25 04:16:33;;;;;;;7.30;3.58;;;13.50;67.70;;;;;;5007433;28;20081;-42
2021/09/25 04:19:17;;;;;;;5.32;3.80;;;13.60;67.40;;;;;;5006663;28;20032;-43
2021/09/25 04:22:01;;;;;;;5.13;3.33;;;13.50;67.50;;;;;;5007176;28;20117;-43
2021/09/25 04:24:45;;;;;;;5.43;3.75;;;13.50;67.60;;;;;;5007056;28;20219;-42
2021/09/25 04:27:30;;;;;;;8.30;4.00;;;13.50;67.50;;;;;;5007015;28;20029;-42
2021/09/25 04:30:14;;;;;;;5.75;3.45;;;13.40;67.60;;;;;;5007607;28;20145;-44
2021/09/25 04:32:59;;;;;;;4.88;3.70;;;13.50;67.40;;;;;;5007182;28;20041;-43
2021/09/25 04:35:43;;;;;;;12.27;3.60;;;13.50;67.20;;;;;;5007530;28;20093;-43
2021/09/25 04:38:27;;;;;;;6.38;4.00;;;13.40;67.40;;;;;;5006417;28;20076;-43
2021/09/25 04:41:11;;;;;;;5.80;3.72;;;13.40;67.70;;;;;;5006756;28;20077;-42
2021/09/25 04:43:55;;;;;;;6.47;3.40;;;13.40;67.50;;;;;;5006824;28;20073;-44
2021/09/25 04:46:41;;;;;;;7.22;3.80;;;13.40;67.50;;;;;;5006695;28;20230;-42
2021/09/25 04:49:25;;;;;;;5.25;4.05;;;13.40;67.40;;;;;;5006865;28;20254;-43
2021/09/25 04:52:09;;;;;;;6.03;3.80;;;13.40;67.70;;;;;;5006602;28;20088;-43
2021/09/25 04:54:53;;;;;;;5.80;3.80;;;13.40;67.70;;;;;;5006499;28;20060;-42
2021/09/25 04:57:38;;;;;;;4.93;3.47;;;13.40;67.50;;;;;;5006270;28;20045;-42
2021/09/25 05:00:22;;;;;;;5.60;3.50;;;13.50;67.40;;;;;;5006930;28;20223;-42
2021/09/25 05:03:07;;;;;;;5.70;3.80;;;13.40;67.30;;;;;;5006457;28;20101;-42
2021/09/25 05:05:51;;;;;;;4.50;3.22;;;13.40;67.30;;;;;;5006772;28;20041;-42
2021/09/25 05:08:35;;;;;;;6.88;4.00;;;13.40;67.50;;;;;;5006497;28;20037;-41
2021/09/25 05:11:19;;;;;;;6.13;3.63;;;13.30;67.60;;;;;;5006465;28;20038;-42
2021/09/25 05:14:04;;;;;;;5.55;3.92;;;13.30;67.80;;;;;;5006081;28;20041;-45
2021/09/25 05:16:48;;;;;;;6.35;4.05;;;13.30;67.90;;;;;;5006374;28;20033;-42
2021/09/25 05:19:32;;;;;;;4.35;3.28;;;13.30;68.00;;;;;;5006356;28;20041;-42
2021/09/25 05:22:18;;;;;;;7.03;3.70;;;13.30;68.20;;;;;;5005116;28;20222;-42
2021/09/25 05:25:03;;;;;;;6.05;3.55;;;13.30;68.10;;;;;;5004909;28;20413;-42
2021/09/25 05:27:48;;;;;;;9.63;4.28;;;13.30;68.20;;;;;;5004912;28;20046;-41
2021/09/25 05:30:33;;;;;;;5.60;3.75;;;13.40;68.20;;;;;;5005513;28;20109;-43
2021/09/25 05:33:17;;;;;;;5.78;3.53;;;13.40;68.10;;;;;;5006544;28;20271;-42
2021/09/25 05:36:01;;;;;;;5.38;3.80;;;13.40;68.10;;;;;;5005663;28;20223;-42
2021/09/25 05:38:46;;;;;;;7.95;3.78;;;13.40;68.40;;;;;;5005370;28;20385;-44
2021/09/25 05:41:31;;;;;;;6.38;3.60;;;13.40;68.60;;;;;;5005811;28;20045;-46
2021/09/25 05:44:15;;;;;;;4.93;3.60;;;13.40;69.10;;;;;;5005658;28;20034;-42
2021/09/25 05:46:59;;;;;;;4.72;3.83;;;13.30;69.40;;;;;;5005739;28;20069;-47
2021/09/25 05:49:46;;;;;;;5.65;3.80;;;13.40;69.50;;;;;;5005592;28;20052;-42
2021/09/25 05:52:30;;;;;;;8.25;4.00;;;13.40;69.60;;;;;;5005927;28;20206;-43
2021/09/25 05:55:15;;;;;;;5.75;3.70;;;13.50;69.70;;;;;;5005347;28;20029;-42
2021/09/25 05:58:01;;;;;;;5.43;3.40;;;13.60;69.80;;;;;;5005076;28;20046;-44
2021/09/25 06:00:46;;;;;;;5.28;3.42;;;13.60;69.90;;;;;;5005202;28;20033;-45
2021/09/25 06:03:30;;;;;;;5.25;3.63;;;13.60;70.40;;;;;;5004906;28;20302;-43
2021/09/25 06:06:14;;;;;;;6.63;3.88;;;13.70;70.80;;;;;;5004776;28;20025;-42
2021/09/25 06:08:58;;;;;;;8.00;4.25;;;13.80;71.00;;;;;;5005374;28;20033;-42
2021/09/25 06:11:43;;;;;;;5.53;3.90;;;13.80;71.10;;;;;;5005297;28;20077;-43
2021/09/25 06:14:27;;;;;;;4.88;3.60;;;13.90;71.20;;;;;;5004811;28;20057;-42
2021/09/25 06:17:11;;;;;;;5.90;3.83;;;14.00;71.10;;;;;;5004840;28;20038;-43
2021/09/25 06:19:55;;;;;;;6.57;3.72;;;14.10;71.50;;;;;;5004769;28;20033;-43
2021/09/25 06:22:40;;;;;;;8.32;4.30;;;14.20;71.80;;;;;;5004811;28;20046;-44
2021/09/25 06:25:24;;;;;;;6.47;4.05;;;14.30;71.90;;;;;;5004953;28;20238;-43
2021/09/25 06:28:09;;;;;;;6.72;3.85;;;14.50;71.70;;;;;;5004697;28;20032;-45
2021/09/25 06:30:53;;;;;;;7.30;4.28;;;14.60;71.80;;;;;;5004896;28;20057;-46
2021/09/25 06:33:38;;;;;;;6.82;4.13;;;14.80;71.50;;;;;;5003823;28;20025;-42
2021/09/25 06:36:22;;;;;;;7.10;3.97;;;15.30;71.00;;;;;;5005034;28;20021;-44
2021/09/25 06:39:07;;;;;;;5.05;3.90;;;15.90;69.20;;;;;;5004499;28;20049;-43
2021/09/25 06:41:51;;;;;;;7.80;4.75;;;16.80;66.60;;;;;;5004720;28;20146;-46
2021/09/25 06:44:35;;;;;;;5.88;4.18;;;18.30;62.10;;;;;;5004975;28;20053;-48
2021/09/25 06:47:20;;;;;;;7.18;4.20;;;19.60;58.10;;;;;;5004660;28;20037;-45
2021/09/25 06:50:05;;;;;;;6.20;3.97;;;20.40;55.70;;;;;;5004928;28;20037;-45
2021/09/25 06:52:49;;;;;;;6.13;3.85;;;19.90;57.20;;;;;;5004510;28;20262;-46
2021/09/25 06:55:33;;;;;;;9.68;4.10;;;19.70;58.60;;;;;;5004462;28;20033;-43
2021/09/25 06:58:17;;;;;;;7.93;4.63;;;19.20;59.80;;;;;;5003754;28;20042;-45
2021/09/25 07:01:01;;;;;;;5.93;4.07;;;18.80;61.00;;;;;;5004370;28;20072;-44
2021/09/25 07:03:46;;;;;;;7.53;4.63;;;18.70;61.90;;;;;;5001988;28;20053;-45
2021/09/25 07:06:31;;;;;;;5.95;4.50;;;18.70;62.50;;;;;;5003471;28;20026;-44
2021/09/25 07:09:15;;;;;;;8.05;4.05;;;18.70;62.90;;;;;;5003838;28;20030;-45
2021/09/25 07:11:59;;;;;;;7.18;4.10;;;18.60;63.10;;;;;;5004010;28;20104;-46
2021/09/25 07:14:44;;;;;;;5.82;4.30;;;18.50;63.40;;;;;;5005044;28;20036;-45
2021/09/25 07:17:28;;;;;;;5.15;3.88;;;18.50;63.90;;;;;;5004573;28;20069;-43
2021/09/25 07:20:12;;;;;;;4.72;3.50;;;18.40;64.00;;;;;;5008193;28;20057;-45
2021/09/25 07:22:57;;;;;;;6.18;3.95;;;18.40;64.10;;;;;;5008363;28;20106;-45
2021/09/25 07:25:42;;;;;;;7.75;3.72;;;18.40;64.60;;;;;;5008452;28;20049;-48
2021/09/25 07:28:25;;;;;;;7.70;4.07;;;18.40;64.90;;;;;;5008386;28;20227;-47
2021/09/25 07:31:11;;;;;;;9.98;4.28;;;18.50;65.30;;;;;;5008058;28;20030;-43
2021/09/25 07:33:55;;;;;;;6.07;3.63;;;18.60;65.10;;;;;;5008130;28;20026;-44
2021/09/25 07:36:40;;;;;;;7.63;3.92;;;18.70;65.20;;;;;;5008125;28;20357;-44
2021/09/25 07:39:24;;;;;;;5.55;3.50;;;18.80;65.00;;;;;;5008486;28;20027;-45
2021/09/25 07:42:08;;;;;;;5.95;3.70;;;19.00;64.70;;;;;;5008236;28;20037;-44
2021/09/25 07:44:52;;;;;;;9.65;3.58;;;19.20;64.80;;;;;;5008409;28;20100;-45
2021/09/25 07:47:37;;;;;;;5.20;3.70;;;19.50;64.30;;;;;;5008388;28;20110;-45
2021/09/25 07:50:22;;;;;;;5.40;3.85;;;19.80;63.50;;;;;;5008266;28;20068;-44
2021/09/25 07:53:06;;;;;;;5.30;3.70;;;20.20;62.80;;;;;;5008331;28;20038;-47
2021/09/25 07:55:51;;;;;;;6.32;4.22;;;20.60;61.40;;;;;;5007870;28;20068;-44
2021/09/25 07:58:35;;;;;;;5.72;3.63;;;21.20;60.50;;;;;;5006233;28;20369;-43
2021/09/25 08:01:19;;;;;;;4.57;3.38;;;21.80;59.20;;;;;;5007423;28;20109;-42
2021/09/25 08:04:04;;;;;;;4.68;3.60;;;22.70;57.00;;;;;;5007441;28;20106;-44
2021/09/25 08:06:48;;;;;;;5.00;3.47;;;23.70;55.00;;;;;;5007357;28;20032;-44
2021/09/25 08:09:32;;;;;;;5.40;3.60;;;24.60;52.70;;;;;;5007360;28;20057;-45
2021/09/25 08:12:17;;;;;;;4.75;3.22;;;25.30;50.40;;;;;;5007535;28;20029;-42
2021/09/25 08:15:01;;;;;;;5.53;3.10;;;26.10;48.40;;;;;;5007458;28;20085;-40
2021/09/25 08:17:45;;;;;;;6.53;3.30;;;26.80;45.40;;;;;;5007688;28;20034;-46
2021/09/25 08:20:30;;;;;;;6.40;2.78;;;26.80;46.10;;;;;;5007482;28;20036;-42
2021/09/25 08:23:14;;;;;;;3.42;2.53;;;26.90;46.00;;;;;;5006005;28;20044;-41
2021/09/25 08:25:58;;;;;;;4.57;2.60;;;27.20;45.00;;;;;;5006950;28;20061;-41
2021/09/25 08:28:43;;;;;;;3.38;2.47;;;26.80;46.00;;;;;;5006808;28;20365;-42
2021/09/25 08:31:27;;;;;;;3.97;2.45;;;26.50;45.50;;;;;;5006672;28;20145;-42
2021/09/25 08:34:13;;;;;;;4.38;2.40;;;26.20;46.50;;;;;;5006679;28;20045;-41
2021/09/25 08:36:57;;;;;;;4.93;2.50;;;25.80;46.90;;;;;;5006748;28;20049;-43
2021/09/25 08:39:42;;;;;;;3.22;2.30;;;25.50;48.50;;;;;;5006784;28;20353;-43
2021/09/25 08:42:26;;;;;;;5.13;2.50;;;25.10;46.90;;;;;;5007443;28;20021;-43
2021/09/25 08:45:11;;;;;;;6.60;2.17;;;24.90;48.20;;;;;;5006705;28;20425;-41
2021/09/25 08:47:55;;;;;;;3.60;2.22;;;24.70;50.00;;;;;;5006607;28;20223;-40
2021/09/25 08:50:40;;;;;;;3.20;2.20;;;24.60;48.50;;;;;;5006984;28;20041;-41
2021/09/25 08:53:24;;;;;;;3.95;2.33;;;24.50;49.30;;;;;;5006797;28;20037;-41
2021/09/25 08:56:09;;;;;;;5.50;2.50;;;24.40;47.50;;;;;;5006843;28;20077;-42
2021/09/25 08:58:54;;;;;;;3.92;2.70;;;24.40;47.90;;;;;;5005487;28;20073;-43
2021/09/25 09:01:41;;;;;;;3.75;2.60;;;24.30;49.30;;;;;;5006521;28;20270;-43
2021/09/25 09:04:41;;;;;;;4.90;2.50;;;24.40;49.70;;;;;;5006372;28;20065;-47
2021/09/25 09:07:27;;;;;;;3.58;2.25;;;24.30;46.70;;;;;;5006358;28;20056;-42
2021/09/25 09:10:12;;;;;;;2.75;2.22;;;24.30;48.10;;;;;;5006148;28;20033;-42
2021/09/25 09:12:56;;;;;;;3.53;2.42;;;24.30;49.30;;;;;;5005880;28;20277;-42
2021/09/25 09:15:40;;;;;;;4.20;2.30;;;24.40;50.40;;;;;;5004925;28;20227;-44
2021/09/25 09:18:24;;;;;;;3.90;2.28;;;24.30;48.90;;;;;;5006419;28;20404;-42
2021/09/25 09:21:23;;;;;;;3.45;2.28;;;24.50;49.80;;;;;;5005885;28;20041;-42
2021/09/25 09:24:08;;;;;;;5.15;2.20;;;24.60;49.60;;;;;;5005050;28;20085;-42
2021/09/25 09:26:52;;;;;;;2.63;2.00;;;24.70;50.00;;;;;;5006303;28;20093;-43
2021/09/25 09:29:36;;;;;;;6.18;2.05;;;24.70;48.70;;;;;;5005128;28;20073;-44
2021/09/25 09:32:20;;;;;;;3.17;2.30;;;24.80;49.50;;;;;;5006105;28;20032;-44
2021/09/25 09:35:13;;;;;;;2.95;2.00;;;24.90;48.90;;;;;;5004606;28;20033;-43
2021/09/25 09:37:58;;;;;;;4.22;2.30;;;24.90;46.80;;;;;;5004974;28;20033;-42
2021/09/25 09:40:42;;;;;;;3.60;2.38;;;24.90;48.30;;;;;;5005011;28;20042;-43
2021/09/25 09:43:27;;;;;;;4.10;2.30;;;24.90;47.00;;;;;;4990666;28;20037;-42
2021/09/25 09:46:11;;;;;;;5.05;2.30;;;25.10;48.00;;;;;;5005403;28;20033;-43
2021/09/25 09:48:55;;;;;;;3.42;2.38;;;25.10;48.20;;;;;;5005375;28;20073;-44
2021/09/25 09:51:42;;;;;;;3.38;2.10;;;25.20;47.20;;;;;;5005498;28;20033;-44
2021/09/25 09:54:28;;;;;;;4.28;2.30;;;25.20;47.20;;;;;;5005751;28;20073;-46
2021/09/25 09:57:17;;;;;;;5.93;2.20;;;25.40;48.40;;;;;;5005443;28;20045;-44
2021/09/25 10:00:02;;;;;;;3.17;2.17;;;25.50;48.50;;;;;;5004404;28;20053;-46
2021/09/25 10:02:47;;;;;;;7.00;2.63;;;25.50;48.50;;;;;;5004017;28;20303;-45
2021/09/25 10:05:31;;;;;;;2.92;2.30;;;25.70;48.60;;;;;;5003984;28;20072;-45
2021/09/25 10:08:15;;;;;;;4.13;2.28;;;25.80;49.10;;;;;;5004256;28;20053;-44
2021/09/25 10:10:59;;;;;;;3.20;2.22;;;25.80;47.40;;;;;;5005069;28;20041;-44
2021/09/25 10:13:43;;;;;;;3.00;2.00;;;25.80;45.70;;;;;;5004152;28;20033;-44
2021/09/25 10:16:28;;;;;;;6.55;2.35;;;25.90;46.30;;;;;;5004965;28;20066;-47
2021/09/25 10:19:12;;;;;;;3.50;2.10;;;25.80;45.80;;;;;;5004993;28;20045;-44
2021/09/25 10:22:04;;;;;;;3.00;2.13;;;25.90;46.50;;;;;;5003937;28;20073;-45
2021/09/25 10:24:56;;;;;;;4.15;2.20;;;26.10;46.40;;;;;;5003752;28;20061;-44
2021/09/25 10:27:45;;;;;;;5.53;2.30;;;26.10;44.40;;;;;;5004745;28;20033;-45
2021/09/25 10:30:35;;;;;;;2.58;2.00;;;26.20;46.40;;;;;;5004753;28;20048;-47
2021/09/25 10:33:19;;;;;;;4.25;2.13;;;26.10;45.20;;;;;;5005362;28;20140;-46
2021/09/25 10:36:03;;;;;;;3.33;2.13;;;26.20;45.90;;;;;;5004652;28;20323;-44
2021/09/25 10:38:47;;;;;;;2.53;1.98;;;26.20;45.40;;;;;;5004383;28;20037;-44
2021/09/25 10:41:31;;;;;;;4.93;2.15;;;26.30;45.20;;;;;;5004954;28;20045;-44
2021/09/25 10:44:29;;;;;;;4.35;2.28;;;26.30;45.50;;;;;;5003713;28;20061;-44
2021/09/25 10:47:18;;;;;;;3.08;2.30;;;26.50;44.00;;;;;;4989762;28;20393;-46
2021/09/25 10:50:05;;;;;;;3.28;2.10;;;26.60;46.00;;;;;;5004593;28;20045;-43
2021/09/25 10:53:08;;;;;;;3.83;1.92;;;26.70;44.40;;;;;;5003469;28;20045;-43
2021/09/25 10:56:03;;;;;;;3.63;2.00;;;26.70;41.70;;;;;;5004340;28;20052;-43
2021/09/25 10:58:57;;;;;;;2.90;2.20;;;26.60;41.40;;;;;;5003487;28;20089;-45
2021/09/25 11:01:42;;;;;;;3.55;2.40;;;26.70;43.20;;;;;;5004894;28;20037;-43
2021/09/25 11:04:32;;;;;;;3.75;2.00;;;26.80;43.00;;;;;;5004432;28;20089;-50
2021/09/25 11:07:34;;;;;;;6.22;2.17;;;26.80;43.20;;;;;;5003485;28;20033;-44
2021/09/25 11:10:58;;;;;;;2.60;1.90;;;26.80;42.00;;;;;;5003516;28;20049;-46
2021/09/25 11:14:00;;;;;;;2.65;1.77;;;26.80;43.00;;;;;;5003507;28;20029;-44
2021/09/25 11:17:03;;;;;;;5.07;2.13;;;27.00;43.30;;;;;;5004202;28;20037;-44
2021/09/25 11:19:51;;;;;;;5.95;2.10;;;27.20;44.00;;;;;;5004029;28;20029;-43
2021/09/25 11:22:39;;;;;;;4.10;2.10;;;27.30;43.20;;;;;;5004383;28;20097;-43
2021/09/25 11:25:28;;;;;;;2.60;1.52;;;27.30;44.10;;;;;;5002743;28;20061;-46
2021/09/25 11:28:21;;;;;;;2.70;2.00;;;27.50;43.10;;;;;;5004024;28;20050;-48
2021/09/25 11:31:07;;;;;;;2.80;1.90;;;27.40;39.80;;;;;;5003920;28;20041;-45
2021/09/25 11:33:52;;;;;;;4.65;2.10;;;27.50;43.00;;;;;;5003792;28;20049;-44
2021/09/25 11:36:36;;;;;;;3.80;1.90;;;27.60;42.00;;;;;;5004422;28;20034;-44
2021/09/25 11:39:36;;;;;;;5.18;1.98;;;27.70;41.80;;;;;;5003558;28;20349;-46
2021/09/25 11:42:25;;;;;;;3.63;2.30;;;27.80;42.40;;;;;;5002571;28;20062;-44
2021/09/25 11:45:10;;;;;;;4.10;2.13;;;27.80;42.20;;;;;;5004426;28;20098;-45
2021/09/25 11:47:54;;;;;;;6.95;1.98;;;27.80;39.50;;;;;;5003023;28;20077;-45
2021/09/25 11:50:40;;;;;;;2.78;2.03;;;27.80;40.10;;;;;;5003827;28;20034;-48
2021/09/25 11:53:27;;;;;;;3.38;2.10;;;27.80;40.60;;;;;;4989464;28;20039;-46
2021/09/25 11:56:12;;;;;;;2.55;1.85;;;27.90;41.30;;;;;;5004466;28;20397;-45
2021/09/25 11:59:00;;;;;;;4.32;2.13;;;28.00;40.50;;;;;;5003240;28;20053;-47
2021/09/25 12:01:46;;;;;;;3.20;2.10;;;28.00;40.00;;;;;;5003001;28;20041;-45
2021/09/25 12:04:40;;;;;;;5.65;2.17;;;28.10;41.30;;;;;;5004597;28;20037;-47
2021/09/25 12:07:44;;;;;;;4.28;2.05;;;28.30;41.90;;;;;;5007550;28;20145;-44
2021/09/25 12:10:30;;;;;;;6.00;2.17;;;28.30;40.40;;;;;;5007573;28;20053;-46
2021/09/25 12:13:26;;;;;;;3.53;2.00;;;28.40;41.40;;;;;;5007365;28;20036;-46
2021/09/25 12:16:13;;;;;;;3.75;2.05;;;28.40;40.30;;;;;;5007336;28;20037;-47
2021/09/25 12:18:58;;;;;;;4.70;2.00;;;28.40;38.90;;;;;;5007402;28;20044;-51
2021/09/25 12:21:48;;;;;;;3.38;2.13;;;28.40;39.90;;;;;;5007085;28;20037;-45
2021/09/25 12:24:32;;;;;;;3.42;2.00;;;28.50;41.10;;;;;;5005997;28;20065;-45
2021/09/25 12:27:27;;;;;;;3.35;2.08;;;28.50;41.10;;;;;;5007337;28;20053;-45
2021/09/25 12:30:14;;;;;;;5.13;2.30;;;28.60;39.40;;;;;;5007357;28;20077;-46
2021/09/25 12:33:02;;;;;;;6.15;2.22;;;28.60;40.20;;;;;;5006860;28;20037;-44
2021/09/25 12:36:14;;;;;;;2.58;1.80;;;28.60;40.10;;;;;;5006633;28;20037;-45
2021/09/25 12:39:06;;;;;;;2.95;1.88;;;28.60;39.20;;;;;;5006875;28;20073;-47
2021/09/25 12:41:52;;;;;;;4.75;1.80;;;28.70;40.60;;;;;;5006699;28;20038;-45
2021/09/25 12:44:36;;;;;;;3.10;1.77;;;28.50;38.30;;;;;;5006852;28;20034;-49
2021/09/25 12:47:33;;;;;;;23.15;2.45;;;28.60;39.30;;;;;;5007104;28;20053;-45
2021/09/25 12:50:24;;;;;;;4.03;1.75;;;28.70;40.30;;;;;;5005823;28;20210;-48
2021/09/25 12:53:15;;;;;;;2.78;1.83;;;28.70;39.90;;;;;;5006721;28;20069;-47
2021/09/25 12:56:12;;;;;;;2.97;1.80;;;28.70;39.80;;;;;;4992182;28;20385;-43
2021/09/25 12:58:59;;;;;;;6.28;2.45;;;28.70;39.00;;;;;;5005749;28;20061;-45
2021/09/25 13:01:48;;;;;;;3.53;2.00;;;28.70;37.90;;;;;;5006397;28;20223;-44
2021/09/25 13:04:39;;;;;;;3.08;2.00;;;28.60;38.60;;;;;;5005154;28;20076;-43
2021/09/25 13:07:28;;;;;;;4.00;2.00;;;28.60;39.20;;;;;;5006078;28;20053;-42
2021/09/25 13:10:16;;;;;;;2.17;1.70;;;28.60;38.40;;;;;;5006258;28;20125;-45
2021/09/25 13:13:01;;;;;;;3.70;1.88;;;28.50;38.90;;;;;;5005354;28;20037;-45
2021/09/25 13:15:46;;;;;;;4.47;1.98;;;28.50;39.50;;;;;;4990674;28;20036;-47
2021/09/25 13:18:30;;;;;;;4.13;1.92;;;28.50;40.50;;;;;;5005894;28;20381;-46
2021/09/25 13:21:14;;;;;;;4.32;2.03;;;28.50;39.90;;;;;;5006307;28;20206;-44
2021/09/25 13:24:07;;;;;;;2.95;2.00;;;28.60;40.20;;;;;;5006198;28;20045;-43
2021/09/25 13:26:51;;;;;;;3.42;2.10;;;28.60;40.00;;;;;;4991458;28;20365;-47
2021/09/25 13:29:35;;;;;;;3.80;1.70;;;28.50;39.50;;;;;;5006611;28;20045;-42
2021/09/25 13:32:21;;;;;;;2.28;1.85;;;28.50;38.70;;;;;;5006310;28;20076;-43
2021/09/25 13:35:06;;;;;;;4.95;1.92;;;28.60;39.90;;;;;;4991365;28;20053;-44
2021/09/25 13:37:50;;;;;;;5.22;2.35;;;28.60;40.30;;;;;;5005498;28;20369;-42
2021/09/25 13:40:35;;;;;;;3.30;2.03;;;28.60;40.20;;;;;;5005843;28;20085;-44
2021/09/25 13:43:19;;;;;;;2.78;2.05;;;28.60;40.50;;;;;;5005574;28;20033;-43
2021/09/25 13:46:04;;;;;;;3.35;1.85;;;28.50;40.00;;;;;;5005432;28;20037;-44
2021/09/25 13:48:49;;;;;;;3.42;2.20;;;28.30;38.90;;;;;;5005450;28;20069;-44
2021/09/25 13:51:33;;;;;;;4.97;2.30;;;28.30;40.50;;;;;;5005152;28;20061;-42
2021/09/25 13:54:18;;;;;;;3.00;2.10;;;28.40;41.30;;;;;;5005689;28;20093;-43
2021/09/25 13:57:05;;;;;;;3.95;1.83;;;28.40;41.30;;;;;;5005350;28;20068;-45
2021/09/25 13:59:50;;;;;;;2.85;1.88;;;28.40;40.70;;;;;;5003598;28;20053;-43
2021/09/25 14:02:34;;;;;;;2.78;1.67;;;28.40;40.60;;;;;;5005505;28;20041;-44
2021/09/25 14:05:18;;;;;;;6.32;2.20;;;28.40;40.50;;;;;;5005198;28;20452;-43
2021/09/25 14:08:06;;;;;;;4.35;2.10;;;28.40;41.60;;;;;;5005385;28;20259;-46
2021/09/25 14:10:50;;;;;;;2.65;1.98;;;28.30;40.10;;;;;;5005045;28;20129;-46
2021/09/25 14:13:38;;;;;;;3.40;2.10;;;28.30;40.60;;;;;;5005073;28;20037;-46
2021/09/25 14:16:23;;;;;;;5.50;2.10;;;28.30;39.30;;;;;;5003740;28;20083;-43
2021/09/25 14:19:07;;;;;;;7.20;2.28;;;28.30;40.50;;;;;;5004843;28;20049;-41
2021/09/25 14:21:52;;;;;;;3.47;2.13;;;28.30;41.20;;;;;;5003835;28;20037;-41